Time;durP1;ratioP1;P1;durP2;ratioP2;P2;SDS_P1;SDS_P2;PMS_P1;PMS_P2;Temp;Humidity;BMP_temperature;BMP_pressure;BME280_temperature;BME280_humidity;BME280_pressure;Samples;Min_cycle;Max_cycle;Signal;HPM_P1;HPM_P2
2022/05/17 00:01:48;;;;;;;4.90;4.30;;;16.30;95.60;;;;;;5099928;28;20204;-44
2022/05/17 00:04:28;;;;;;;4.17;3.70;;;16.30;95.70;;;;;;5100908;28;20229;-42
2022/05/17 00:06:54;;;;;;;4.73;3.93;;;16.20;95.80;;;;;;5082894;28;20229;-44
2022/05/17 00:09:20;;;;;;;5.10;3.83;;;16.20;96.10;;;;;;5101081;28;20653;-44
2022/05/17 00:11:47;;;;;;;4.73;3.80;;;16.10;96.20;;;;;;5099571;28;20173;-44
2022/05/17 00:14:14;;;;;;;3.93;3.57;;;16.10;96.20;;;;;;5100394;28;20476;-44
2022/05/17 00:16:49;;;;;;;4.23;3.83;;;16.10;96.10;;;;;;5100120;28;20761;-43
2022/05/17 00:19:29;;;;;;;4.00;3.50;;;16.10;95.90;;;;;;5100799;28;20638;-42
2022/05/17 00:21:55;;;;;;;5.13;4.57;;;16.20;96.00;;;;;;5100583;28;20438;-42
2022/05/17 00:24:21;;;;;;;4.53;4.13;;;16.20;95.80;;;;;;5100809;28;20395;-44
2022/05/17 00:26:48;;;;;;;5.50;4.37;;;16.20;95.90;;;;;;5101243;28;20423;-43
2022/05/17 00:29:14;;;;;;;5.77;3.70;;;16.20;95.70;;;;;;5100600;28;20427;-43
2022/05/17 00:31:40;;;;;;;4.50;4.10;;;16.20;95.90;;;;;;5100370;28;20415;-44
2022/05/17 00:34:06;;;;;;;4.80;3.80;;;16.10;95.90;;;;;;5100540;28;20429;-43
2022/05/17 00:36:32;;;;;;;4.20;3.80;;;16.10;96.00;;;;;;5100490;28;20197;-43
2022/05/17 00:38:58;;;;;;;4.03;3.70;;;16.10;95.90;;;;;;5100098;28;20252;-44
2022/05/17 00:41:24;;;;;;;4.60;3.80;;;16.00;95.90;;;;;;5098995;28;20820;-41
2022/05/17 00:46:40;;;;;;;6.40;4.33;;;16.10;95.90;;;;;;5100013;28;20187;-44
2022/05/17 00:49:09;;;;;;;3.87;3.47;;;16.00;95.90;;;;;;5082417;28;20411;-43
2022/05/17 00:51:35;;;;;;;8.20;3.70;;;16.00;96.10;;;;;;5082560;28;20407;-44
2022/05/17 00:54:16;;;;;;;4.03;3.63;;;15.90;96.10;;;;;;5099859;28;20707;-43
2022/05/17 00:57:14;;;;;;;5.93;4.30;;;15.90;96.10;;;;;;5100077;28;20407;-43
2022/05/17 00:59:49;;;;;;;4.97;4.10;;;15.90;96.40;;;;;;5073833;28;20431;-42
2022/05/17 01:02:15;;;;;;;4.97;4.23;;;15.90;96.20;;;;;;5079901;28;20396;-43
2022/05/17 01:04:41;;;;;;;4.17;3.70;;;15.90;96.00;;;;;;5079742;28;20753;-43
2022/05/17 01:07:12;;;;;;;6.43;4.00;;;15.80;96.30;;;;;;5079787;28;20177;-43
2022/05/17 01:09:37;;;;;;;4.63;4.23;;;15.80;96.40;;;;;;5061502;28;20429;-43
2022/05/17 01:12:18;;;;;;;6.00;4.40;;;15.80;96.30;;;;;;5079400;28;20403;-43
2022/05/17 01:15:01;;;;;;;4.13;3.73;;;15.80;96.20;;;;;;5079734;28;20198;-45
2022/05/17 01:17:32;;;;;;;9.67;4.20;;;15.70;96.30;;;;;;5079210;28;20478;-43
2022/05/17 01:19:58;;;;;;;6.63;4.50;;;15.70;96.40;;;;;;5079603;28;20470;-44
2022/05/17 01:22:24;;;;;;;5.50;3.60;;;15.70;96.40;;;;;;5062197;28;20430;-43
2022/05/17 01:24:50;;;;;;;6.83;4.20;;;15.70;96.40;;;;;;5079485;28;20432;-42
2022/05/17 01:27:42;;;;;;;4.03;3.63;;;15.70;96.40;;;;;;5079368;28;20169;-43
2022/05/17 01:30:29;;;;;;;5.30;3.77;;;15.80;96.30;;;;;;5065130;28;20444;-44
2022/05/17 01:32:55;;;;;;;5.07;3.90;;;15.80;96.20;;;;;;5099024;28;20494;-44
2022/05/17 01:35:21;;;;;;;5.57;3.80;;;15.70;96.20;;;;;;5081358;28;20431;-43
2022/05/17 01:37:52;;;;;;;3.43;3.10;;;15.80;96.30;;;;;;5100007;28;20260;-44
2022/05/17 01:40:18;;;;;;;4.53;3.80;;;15.70;96.20;;;;;;5099707;28;20470;-44
2022/05/17 01:42:49;;;;;;;3.90;3.50;;;15.70;96.20;;;;;;5099561;28;20520;-43
2022/05/17 01:45:15;;;;;;;4.20;3.60;;;15.70;96.10;;;;;;5099427;28;20173;-43
2022/05/17 01:47:41;;;;;;;5.20;4.00;;;15.70;96.10;;;;;;5099073;28;20415;-51
2022/05/17 01:50:07;;;;;;;4.90;4.40;;;15.70;95.90;;;;;;5098908;28;20173;-43
2022/05/17 01:52:33;;;;;;;4.87;4.10;;;15.60;95.90;;;;;;5099055;28;20419;-44
2022/05/17 01:55:14;;;;;;;5.53;5.03;;;15.60;95.90;;;;;;5098486;28;20418;-44
2022/05/17 01:57:41;;;;;;;6.10;3.90;;;15.60;96.00;;;;;;5099526;28;20426;-44
2022/05/17 02:00:10;;;;;;;5.80;3.83;;;15.60;95.90;;;;;;5099264;28;20477;-44
2022/05/17 02:02:36;;;;;;;5.03;4.00;;;15.50;95.70;;;;;;5098990;28;20426;-45
2022/05/17 02:05:03;;;;;;;3.73;3.43;;;15.50;95.60;;;;;;5064542;28;20509;-43
2022/05/17 02:07:35;;;;;;;6.03;4.43;;;15.40;95.90;;;;;;5098869;28;20806;-44
2022/05/17 02:10:00;;;;;;;4.77;4.37;;;15.40;96.00;;;;;;5098598;28;20411;-43
2022/05/17 02:12:26;;;;;;;3.90;3.60;;;15.40;96.10;;;;;;5081002;28;20435;-43
2022/05/17 02:14:52;;;;;;;5.00;4.40;;;15.30;96.00;;;;;;5098954;28;20241;-42
2022/05/17 02:17:17;;;;;;;4.20;3.80;;;15.30;96.00;;;;;;5098225;28;20450;-43
2022/05/17 02:19:43;;;;;;;4.20;3.53;;;15.20;96.00;;;;;;5098748;28;20209;-43
2022/05/17 02:22:11;;;;;;;5.83;4.20;;;15.10;96.30;;;;;;5097673;28;20275;-43
2022/05/17 02:24:36;;;;;;;6.13;4.53;;;15.10;96.60;;;;;;5098276;28;20493;-45
2022/05/17 02:27:02;;;;;;;4.27;3.87;;;14.90;96.90;;;;;;5098510;28;20514;-43
2022/05/17 02:29:41;;;;;;;5.17;4.23;;;14.80;97.20;;;;;;5098714;28;20192;-50
2022/05/17 02:32:06;;;;;;;5.80;4.30;;;14.60;97.50;;;;;;5081959;28;20751;-43
2022/05/17 02:34:34;;;;;;;4.90;4.40;;;14.60;97.90;;;;;;5098756;28;20474;-43
2022/05/17 02:37:08;;;;;;;5.33;4.20;;;14.50;98.30;;;;;;5097820;28;20426;-42
2022/05/17 02:39:34;;;;;;;6.33;5.13;;;14.50;98.50;;;;;;5098666;28;20407;-43
2022/05/17 02:42:00;;;;;;;6.03;4.90;;;14.60;98.20;;;;;;5097905;28;20569;-43
2022/05/17 02:44:27;;;;;;;5.70;4.80;;;14.60;98.40;;;;;;5098370;28;20280;-44
2022/05/17 02:46:53;;;;;;;6.93;5.10;;;14.60;98.30;;;;;;5097692;28;20405;-42
2022/05/17 02:49:19;;;;;;;6.17;5.27;;;14.60;98.30;;;;;;5098121;28;20419;-43
2022/05/17 02:51:45;;;;;;;5.90;5.40;;;14.70;98.20;;;;;;5098465;28;20173;-44
2022/05/17 02:54:10;;;;;;;5.37;4.87;;;14.70;98.30;;;;;;5098332;28;20472;-43
2022/05/17 02:56:36;;;;;;;4.17;3.83;;;14.70;98.10;;;;;;5098061;28;20446;-41
2022/05/17 02:59:03;;;;;;;4.00;3.67;;;14.70;98.00;;;;;;5097769;28;20175;-43
2022/05/17 03:01:28;;;;;;;4.60;4.20;;;14.80;98.00;;;;;;5079704;28;20466;-43
2022/05/17 03:03:54;;;;;;;3.97;3.57;;;14.80;97.80;;;;;;5097397;28;20430;-45
2022/05/17 03:06:20;;;;;;;5.87;4.63;;;14.80;97.50;;;;;;5097950;28;20230;-42
2022/05/17 03:08:45;;;;;;;5.70;4.57;;;14.80;97.80;;;;;;5097531;28;20187;-43
2022/05/17 03:11:11;;;;;;;5.27;4.77;;;14.90;97.30;;;;;;5097521;28;20176;-44
2022/05/17 03:13:37;;;;;;;4.60;3.60;;;14.80;97.20;;;;;;5096470;28;20211;-44
2022/05/17 03:16:03;;;;;;;4.57;3.93;;;14.80;97.40;;;;;;5079064;28;20462;-43
2022/05/17 03:18:29;;;;;;;5.60;4.37;;;14.90;97.60;;;;;;5096905;28;20174;-43
2022/05/17 03:21:10;;;;;;;4.50;3.77;;;14.90;97.30;;;;;;5096921;28;20576;-43
2022/05/17 03:23:35;;;;;;;4.03;3.67;;;14.90;97.20;;;;;;5097954;28;20172;-42
2022/05/17 03:26:02;;;;;;;5.73;4.13;;;14.90;97.20;;;;;;5079422;28;20457;-44
2022/05/17 03:28:28;;;;;;;6.10;4.50;;;14.90;97.10;;;;;;5082870;28;20501;-44
2022/05/17 03:30:53;;;;;;;5.07;4.67;;;14.90;96.80;;;;;;5092782;28;20724;-43
2022/05/17 03:33:28;;;;;;;4.43;3.80;;;14.90;96.80;;;;;;5094678;28;20229;-44
2022/05/17 03:36:14;;;;;;;5.33;4.70;;;15.00;96.80;;;;;;5095538;28;20192;-46
2022/05/17 03:38:40;;;;;;;5.33;4.20;;;15.00;96.70;;;;;;5094191;28;20782;-43
2022/05/17 03:41:06;;;;;;;4.20;3.60;;;15.00;96.60;;;;;;5095412;28;20577;-45
2022/05/17 03:43:32;;;;;;;5.20;4.57;;;15.00;96.70;;;;;;5095238;28;20215;-44
2022/05/17 03:46:05;;;;;;;4.90;4.50;;;15.00;96.70;;;;;;5094234;28;20863;-43
2022/05/17 03:48:31;;;;;;;6.07;4.30;;;14.90;96.40;;;;;;5095481;28;20489;-43
2022/05/17 03:50:57;;;;;;;5.50;3.83;;;15.00;96.10;;;;;;5084485;28;21005;-44
2022/05/17 03:53:22;;;;;;;4.30;3.77;;;14.90;96.30;;;;;;5088842;28;20264;-44
2022/05/17 03:55:48;;;;;;;4.73;3.70;;;14.90;96.50;;;;;;5088489;28;20200;-43
2022/05/17 03:58:14;;;;;;;4.60;4.20;;;14.90;96.60;;;;;;5087490;28;20227;-44
2022/05/17 04:00:40;;;;;;;4.47;4.03;;;15.00;96.20;;;;;;5089209;28;20209;-44
2022/05/17 04:03:06;;;;;;;3.93;3.63;;;15.00;96.10;;;;;;5078300;28;20192;-44
2022/05/17 04:05:32;;;;;;;5.40;4.00;;;15.00;96.40;;;;;;5078263;28;20518;-44
2022/05/17 04:08:04;;;;;;;5.00;4.20;;;15.00;96.50;;;;;;5094481;28;20166;-44
2022/05/17 04:10:29;;;;;;;7.60;4.80;;;15.00;96.40;;;;;;5095218;28;20191;-44
2022/05/17 04:12:55;;;;;;;5.00;3.87;;;15.10;96.40;;;;;;5084029;28;20757;-44
2022/05/17 04:15:22;;;;;;;4.97;3.47;;;15.10;96.30;;;;;;5083231;28;20182;-44
2022/05/17 04:17:54;;;;;;;4.83;3.93;;;15.20;96.10;;;;;;5075817;28;20178;-45
2022/05/17 04:20:20;;;;;;;5.00;4.03;;;15.20;96.00;;;;;;5084169;28;20560;-44
2022/05/17 04:22:49;;;;;;;6.00;4.47;;;15.30;95.80;;;;;;5098313;28;20535;-45
2022/05/17 04:25:17;;;;;;;4.53;4.10;;;15.30;95.60;;;;;;5068034;28;20182;-44
2022/05/17 04:27:43;;;;;;;5.00;4.50;;;15.30;95.50;;;;;;5077225;28;20419;-44
2022/05/17 04:30:14;;;;;;;5.40;4.33;;;15.40;95.40;;;;;;5081004;28;20436;-45
2022/05/17 04:32:40;;;;;;;5.17;4.77;;;15.40;95.40;;;;;;5097908;28;20237;-44
2022/05/17 04:35:07;;;;;;;4.33;3.93;;;15.40;95.30;;;;;;5097776;28;20430;-46
2022/05/17 04:37:32;;;;;;;4.47;4.03;;;15.40;95.50;;;;;;5079538;28;20180;-45
2022/05/17 04:40:01;;;;;;;6.13;4.73;;;15.50;95.20;;;;;;5096822;28;20470;-45
2022/05/17 04:42:27;;;;;;;4.67;4.20;;;15.50;95.30;;;;;;5097694;28;20187;-45
2022/05/17 04:44:53;;;;;;;4.20;3.80;;;15.50;95.40;;;;;;5095944;28;20460;-45
2022/05/17 04:47:18;;;;;;;4.77;4.30;;;15.60;95.50;;;;;;5096504;28;20859;-51
2022/05/17 04:49:44;;;;;;;4.67;3.87;;;15.70;95.40;;;;;;5098412;28;20184;-44
2022/05/17 04:52:10;;;;;;;6.07;4.53;;;15.70;95.30;;;;;;5098448;28;20170;-44
2022/05/17 04:54:35;;;;;;;5.37;4.87;;;15.90;95.20;;;;;;5095709;28;20279;-44
2022/05/17 04:57:01;;;;;;;5.37;4.87;;;16.00;95.00;;;;;;5096588;28;20238;-44
2022/05/17 04:59:27;;;;;;;10.00;5.20;;;16.10;95.10;;;;;;5096456;28;20179;-45
2022/05/17 05:01:52;;;;;;;4.83;4.10;;;16.10;94.90;;;;;;5095288;28;20265;-45
2022/05/17 05:04:18;;;;;;;5.13;4.20;;;16.20;94.90;;;;;;5093916;28;20322;-45
2022/05/17 05:06:44;;;;;;;10.70;5.87;;;16.30;95.00;;;;;;5096664;28;20169;-43
2022/05/17 05:09:13;;;;;;;5.60;5.13;;;16.30;94.80;;;;;;5096940;28;20169;-45
2022/05/17 05:11:39;;;;;;;5.80;4.70;;;16.20;95.00;;;;;;5095081;28;20189;-44
2022/05/17 05:14:05;;;;;;;4.63;4.10;;;16.10;95.50;;;;;;5076923;28;20727;-45
2022/05/17 05:16:31;;;;;;;6.07;4.30;;;16.10;95.60;;;;;;5078151;28;20615;-44
2022/05/17 05:18:57;;;;;;;6.60;5.10;;;16.30;95.60;;;;;;5075137;28;20839;-43
2022/05/17 05:21:23;;;;;;;5.93;5.33;;;16.40;95.40;;;;;;5057428;28;20476;-44
2022/05/17 05:23:48;;;;;;;5.50;5.00;;;16.50;95.30;;;;;;5075013;28;20193;-45
2022/05/17 05:26:15;;;;;;;4.30;3.87;;;16.70;95.20;;;;;;5075089;28;20186;-45
2022/05/17 05:28:42;;;;;;;5.67;5.17;;;16.90;94.90;;;;;;5073390;28;20271;-44
2022/05/17 05:31:10;;;;;;;5.20;4.70;;;17.00;94.50;;;;;;5084957;28;20969;-44
2022/05/17 05:33:36;;;;;;;5.23;4.73;;;17.20;94.30;;;;;;5092370;28;20509;-43
2022/05/17 05:36:02;;;;;;;6.00;5.40;;;17.40;94.10;;;;;;5092085;28;20642;-44
2022/05/17 05:38:28;;;;;;;5.10;4.50;;;17.50;93.90;;;;;;5093247;28;20583;-45
2022/05/17 05:40:53;;;;;;;5.70;4.83;;;17.70;94.00;;;;;;5092073;28;20516;-45
2022/05/17 05:43:19;;;;;;;7.27;4.80;;;17.80;93.80;;;;;;5092313;28;20181;-45
2022/05/17 05:45:45;;;;;;;5.07;4.37;;;17.90;93.50;;;;;;5092271;28;20226;-45
2022/05/17 05:48:14;;;;;;;7.43;5.27;;;18.10;93.20;;;;;;5076217;28;20276;-45
2022/05/17 05:50:40;;;;;;;6.93;5.60;;;18.30;93.00;;;;;;5092670;28;20173;-45
2022/05/17 05:53:12;;;;;;;5.87;5.27;;;18.40;92.90;;;;;;5091333;28;20861;-45
2022/05/17 05:55:38;;;;;;;5.47;4.80;;;18.60;92.70;;;;;;5089653;28;20852;-50
2022/05/17 05:58:05;;;;;;;6.00;4.77;;;18.70;92.70;;;;;;5088959;28;20466;-45
2022/05/17 06:00:39;;;;;;;12.30;6.20;;;18.80;92.70;;;;;;5091348;28;20474;-44
2022/05/17 06:03:05;;;;;;;5.37;4.87;;;18.80;92.80;;;;;;5091485;28;20656;-45
2022/05/17 06:05:31;;;;;;;6.43;5.83;;;18.90;93.00;;;;;;5093776;28;20820;-44
2022/05/17 06:07:57;;;;;;;6.40;4.90;;;19.00;92.70;;;;;;5093874;28;20427;-45
2022/05/17 06:10:26;;;;;;;6.13;5.47;;;19.10;92.60;;;;;;5092983;28;20475;-45
2022/05/17 06:12:52;;;;;;;6.80;5.17;;;19.20;92.20;;;;;;5095002;28;20205;-45
2022/05/17 06:15:18;;;;;;;6.43;5.80;;;19.40;92.00;;;;;;5094660;28;20546;-45
2022/05/17 06:17:44;;;;;;;6.20;5.60;;;19.60;91.60;;;;;;5077166;28;20181;-45
2022/05/17 06:20:16;;;;;;;8.43;7.10;;;19.70;91.40;;;;;;5093611;28;20544;-44
2022/05/17 06:22:42;;;;;;;8.77;5.80;;;19.70;91.50;;;;;;5075067;28;20198;-45
2022/05/17 06:25:08;;;;;;;7.60;6.90;;;19.70;91.40;;;;;;5089590;28;20529;-45
2022/05/17 06:27:34;;;;;;;6.17;5.67;;;19.70;91.50;;;;;;5083939;28;20434;-45
2022/05/17 06:30:07;;;;;;;6.40;5.80;;;19.90;91.40;;;;;;5094686;28;20446;-45
2022/05/17 06:32:33;;;;;;;7.83;7.13;;;20.10;91.20;;;;;;5076787;28;20226;-48
2022/05/17 06:34:59;;;;;;;7.27;4.60;;;20.20;90.80;;;;;;5057477;28;20506;-48
2022/05/17 06:37:25;;;;;;;8.10;7.00;;;20.40;91.00;;;;;;5074886;28;20443;-45
2022/05/17 06:39:50;;;;;;;7.23;6.23;;;20.50;90.70;;;;;;5075474;28;20170;-45
2022/05/17 06:42:16;;;;;;;6.80;5.40;;;20.60;90.80;;;;;;5075158;28;20183;-44
2022/05/17 06:44:42;;;;;;;7.70;6.90;;;20.70;90.60;;;;;;5075438;28;20169;-46
2022/05/17 06:47:08;;;;;;;7.30;6.50;;;20.80;90.10;;;;;;5075403;28;20477;-45
2022/05/17 06:49:36;;;;;;;7.73;6.93;;;21.00;90.20;;;;;;5074134;28;20266;-45
2022/05/17 06:52:18;;;;;;;10.00;9.10;;;21.00;90.30;;;;;;5074129;28;20700;-45
2022/05/17 06:54:44;;;;;;;7.70;6.90;;;21.00;90.20;;;;;;5071584;28;20419;-45
2022/05/17 06:57:12;;;;;;;8.10;7.30;;;21.00;90.30;;;;;;5071999;28;20630;-44
2022/05/17 06:59:39;;;;;;;7.50;6.80;;;21.20;90.00;;;;;;5069874;28;20748;-45
2022/05/17 07:02:08;;;;;;;8.50;6.47;;;21.20;90.20;;;;;;5071860;28;20449;-46
2022/05/17 07:04:34;;;;;;;7.30;6.60;;;21.40;90.00;;;;;;5075211;28;20440;-45
2022/05/17 07:07:01;;;;;;;12.43;7.27;;;21.50;90.00;;;;;;5074798;28;20459;-46
2022/05/17 07:09:28;;;;;;;10.07;6.40;;;21.70;89.60;;;;;;5075439;28;20438;-47
2022/05/17 07:14:39;;;;;;;9.73;7.10;;;22.00;88.80;;;;;;5074124;28;20416;-47
2022/05/17 07:17:06;;;;;;;7.13;6.33;;;22.20;88.90;;;;;;5073745;28;20476;-46
2022/05/17 07:19:35;;;;;;;6.47;5.87;;;22.40;88.20;;;;;;5053897;28;20434;-44
2022/05/17 07:22:04;;;;;;;6.57;5.87;;;22.70;86.90;;;;;;5072397;28;20476;-44
2022/05/17 07:24:30;;;;;;;9.37;7.67;;;23.00;85.70;;;;;;5072039;28;20514;-45
2022/05/17 07:26:57;;;;;;;6.23;5.73;;;23.10;85.10;;;;;;5073380;28;20438;-45
2022/05/17 07:29:22;;;;;;;6.27;5.77;;;23.20;84.00;;;;;;5075092;28;20405;-43
2022/05/17 07:31:51;;;;;;;7.17;6.20;;;23.20;83.10;;;;;;5073369;28;20767;-49
2022/05/17 07:34:17;;;;;;;8.93;7.10;;;23.10;83.80;;;;;;5073083;28;20259;-44
2022/05/17 07:36:44;;;;;;;10.00;6.70;;;23.30;83.00;;;;;;5073161;28;20821;-44
2022/05/17 07:39:10;;;;;;;7.83;7.13;;;23.20;82.30;;;;;;5074018;28;20412;-42
2022/05/17 07:41:36;;;;;;;7.90;7.20;;;23.00;82.20;;;;;;5073483;28;20758;-45
2022/05/17 07:44:02;;;;;;;8.43;6.83;;;23.20;83.00;;;;;;5074204;28;21034;-49
2022/05/17 07:46:28;;;;;;;7.53;6.67;;;23.40;81.70;;;;;;5071771;28;20210;-43
2022/05/17 07:48:54;;;;;;;8.00;6.27;;;23.40;80.50;;;;;;5074065;28;20677;-45
2022/05/17 07:51:27;;;;;;;6.50;5.80;;;23.60;79.20;;;;;;5074128;28;20451;-52
2022/05/17 07:53:54;;;;;;;6.17;5.60;;;23.90;80.50;;;;;;5074360;28;20554;-44
2022/05/17 07:56:19;;;;;;;5.30;4.80;;;24.20;79.80;;;;;;5078016;28;20527;-45
2022/05/17 07:58:45;;;;;;;7.93;6.67;;;24.50;77.70;;;;;;5076774;28;20476;-45
2022/05/17 08:01:12;;;;;;;6.93;6.23;;;24.80;76.70;;;;;;5076887;28;20244;-44
2022/05/17 08:03:38;;;;;;;9.53;6.20;;;25.10;74.70;;;;;;5060445;28;20522;-44
2022/05/17 08:06:03;;;;;;;6.63;5.90;;;25.10;73.60;;;;;;5043382;28;20431;-47
2022/05/17 08:08:29;;;;;;;5.87;5.37;;;25.20;72.70;;;;;;5075643;28;20465;-43
2022/05/17 08:11:05;;;;;;;6.10;5.47;;;25.40;70.00;;;;;;5076299;28;20423;-46
2022/05/17 08:13:31;;;;;;;7.30;6.40;;;25.50;69.10;;;;;;5076543;28;20187;-46
2022/05/17 08:15:57;;;;;;;5.50;5.03;;;25.70;68.80;;;;;;5076967;28;20434;-46
2022/05/17 08:18:22;;;;;;;5.97;5.47;;;26.10;69.80;;;;;;5076715;28;20719;-47
2022/05/17 08:20:54;;;;;;;6.13;5.50;;;26.50;67.90;;;;;;5076143;28;20207;-42
2022/05/17 08:23:19;;;;;;;6.23;5.63;;;26.90;64.60;;;;;;5074992;28;20466;-45
2022/05/17 08:28:29;;;;;;;6.80;5.60;;;27.60;60.10;;;;;;5060888;28;20183;-46
2022/05/17 08:30:55;;;;;;;14.30;5.83;;;27.80;58.80;;;;;;5076851;28;20519;-44
2022/05/17 08:33:33;;;;;;;6.60;5.70;;;27.20;59.60;;;;;;5077201;28;20340;-46
2022/05/17 08:36:10;;;;;;;6.17;5.57;;;26.80;60.40;;;;;;5075432;28;20214;-44
2022/05/17 08:38:40;;;;;;;5.37;4.87;;;26.30;59.30;;;;;;5076888;28;20841;-44
2022/05/17 08:41:12;;;;;;;5.70;5.30;;;26.00;61.60;;;;;;5076450;28;20482;-46
2022/05/17 08:43:48;;;;;;;7.20;6.33;;;26.00;61.60;;;;;;5085983;28;20834;-45
2022/05/17 08:46:23;;;;;;;6.80;5.43;;;26.00;62.00;;;;;;5079555;28;20438;-44
2022/05/17 08:49:27;;;;;;;6.30;5.70;;;25.40;62.90;;;;;;5078620;28;20417;-45
2022/05/17 08:52:15;;;;;;;7.00;5.43;;;25.40;64.00;;;;;;5076473;28;20824;-47
2022/05/17 08:54:51;;;;;;;5.30;4.87;;;25.70;66.00;;;;;;5077536;28;20723;-48
2022/05/17 08:58:02;;;;;;;5.20;4.70;;;26.20;65.70;;;;;;5057779;28;20443;-47
2022/05/17 09:00:50;;;;;;;5.20;4.67;;;26.60;63.60;;;;;;5072213;28;20468;-45
2022/05/17 09:03:34;;;;;;;5.83;4.40;;;27.00;62.50;;;;;;5058428;28;20434;-44
2022/05/17 09:06:20;;;;;;;5.50;5.00;;;27.50;60.00;;;;;;5073003;28;20421;-47
2022/05/17 09:09:08;;;;;;;7.20;5.30;;;28.00;59.30;;;;;;5056887;28;20400;-47
2022/05/17 09:11:40;;;;;;;5.30;4.90;;;28.20;56.80;;;;;;5076207;28;20432;-46
2022/05/17 09:14:15;;;;;;;5.80;5.20;;;28.10;55.40;;;;;;5091646;28;20428;-44
2022/05/17 09:17:03;;;;;;;6.93;6.27;;;27.80;55.30;;;;;;5094362;28;20579;-45
2022/05/17 09:19:49;;;;;;;5.97;5.30;;;27.70;54.60;;;;;;5094693;28;20421;-44
2022/05/17 09:22:21;;;;;;;5.70;5.20;;;27.10;55.90;;;;;;5096799;28;20430;-45
2022/05/17 09:25:11;;;;;;;5.90;5.40;;;27.00;55.90;;;;;;5097968;28;20381;-45
2022/05/17 09:27:50;;;;;;;6.47;5.30;;;27.00;55.90;;;;;;5059469;28;21069;-44
2022/05/17 09:30:22;;;;;;;6.83;6.13;;;27.10;55.20;;;;;;5076142;28;20420;-45
2022/05/17 09:32:58;;;;;;;6.73;5.87;;;27.20;56.00;;;;;;5077184;28;20569;-46
2022/05/17 09:35:24;;;;;;;6.20;5.20;;;27.30;54.70;;;;;;5075679;28;20435;-44
2022/05/17 09:37:52;;;;;;;8.90;5.77;;;27.00;55.50;;;;;;5077944;28;20707;-43
2022/05/17 09:40:45;;;;;;;6.20;5.23;;;26.50;56.70;;;;;;5076408;28;20215;-44
2022/05/17 09:43:13;;;;;;;6.70;6.00;;;26.30;57.30;;;;;;5063748;28;20428;-49
2022/05/17 09:45:58;;;;;;;7.03;6.00;;;26.00;57.30;;;;;;5094539;28;20429;-53
2022/05/17 09:48:30;;;;;;;6.40;5.43;;;26.30;57.90;;;;;;5096441;28;20520;-47
2022/05/17 09:53:44;;;;;;;6.53;5.93;;;25.80;56.80;;;;;;5082550;28;20894;-45
2022/05/17 09:56:10;;;;;;;6.50;5.83;;;25.90;57.30;;;;;;5097227;28;20424;-50
2022/05/17 09:58:41;;;;;;;7.60;5.53;;;26.00;58.20;;;;;;5096838;28;20424;-48
2022/05/17 10:01:29;;;;;;;6.00;5.43;;;26.40;56.30;;;;;;5080000;28;20473;-47
2022/05/17 10:04:06;;;;;;;6.23;5.63;;;27.00;55.60;;;;;;5076697;28;20521;-49
2022/05/17 10:06:37;;;;;;;7.33;4.90;;;27.70;54.60;;;;;;5095561;28;20414;-47
2022/05/17 10:09:03;;;;;;;7.57;5.80;;;28.40;54.90;;;;;;5075622;28;20441;-48
2022/05/17 10:11:44;;;;;;;5.40;5.00;;;29.00;52.80;;;;;;5096459;28;20593;-49
2022/05/17 10:14:31;;;;;;;6.07;5.50;;;29.50;52.40;;;;;;5096574;28;20747;-48
2022/05/17 10:17:55;;;;;;;7.67;5.30;;;29.50;51.60;;;;;;5093851;28;20824;-47
2022/05/17 10:20:46;;;;;;;6.67;5.03;;;29.30;51.40;;;;;;5058010;28;20752;-48
2022/05/17 10:23:29;;;;;;;5.93;5.40;;;29.30;52.10;;;;;;5093314;28;20792;-48
2022/05/17 10:26:05;;;;;;;5.93;5.17;;;29.80;49.30;;;;;;5095308;28;20390;-47
2022/05/17 10:29:03;;;;;;;4.57;4.13;;;30.10;49.60;;;;;;5075994;28;20405;-44
2022/05/17 10:31:53;;;;;;;5.70;5.20;;;30.10;47.80;;;;;;5094585;28;20767;-46
2022/05/17 10:34:34;;;;;;;4.23;3.90;;;29.70;47.80;;;;;;5053970;28;20851;-47
2022/05/17 10:37:07;;;;;;;4.70;4.30;;;29.40;48.80;;;;;;5053258;28;20824;-47
2022/05/17 10:39:41;;;;;;;6.83;4.33;;;29.50;49.40;;;;;;5052745;28;20453;-48
2022/05/17 10:42:07;;;;;;;5.50;4.80;;;29.70;48.60;;;;;;5035676;28;20823;-48
2022/05/17 10:44:45;;;;;;;4.93;4.50;;;30.20;48.00;;;;;;5053213;28;20438;-48
2022/05/17 10:47:41;;;;;;;5.17;4.67;;;30.40;46.90;;;;;;5050993;28;20506;-48
2022/05/17 10:50:34;;;;;;;5.30;4.80;;;30.60;46.70;;;;;;5046290;28;20420;-46
2022/05/17 10:53:22;;;;;;;7.77;5.03;;;31.10;45.80;;;;;;5054997;28;20495;-48
2022/05/17 10:56:09;;;;;;;6.17;4.43;;;31.40;43.90;;;;;;5054493;28;20451;-49
2022/05/17 10:58:59;;;;;;;4.77;4.40;;;31.50;44.00;;;;;;5054009;28;21061;-47
2022/05/17 11:01:33;;;;;;;5.03;4.53;;;31.30;43.20;;;;;;5055052;28;20498;-47
2022/05/17 11:04:15;;;;;;;4.20;3.90;;;31.00;43.80;;;;;;5053809;28;20439;-48
2022/05/17 11:06:46;;;;;;;4.93;4.53;;;30.70;44.10;;;;;;5054234;28;20473;-47
2022/05/17 11:09:31;;;;;;;5.10;4.70;;;30.30;45.30;;;;;;5041703;28;20963;-46
2022/05/17 11:12:10;;;;;;;4.10;3.80;;;29.60;46.10;;;;;;5038572;28;20545;-46
2022/05/17 11:14:55;;;;;;;4.57;4.20;;;29.20;46.80;;;;;;5054067;28;21150;-46
2022/05/17 11:17:34;;;;;;;4.50;4.10;;;28.90;47.60;;;;;;5034946;28;20892;-48
2022/05/17 11:20:45;;;;;;;4.37;4.07;;;28.90;47.40;;;;;;5051823;28;20437;-49
2022/05/17 11:23:32;;;;;;;5.07;4.57;;;29.10;48.60;;;;;;5043739;28;20432;-47
2022/05/17 11:26:26;;;;;;;4.30;3.90;;;29.40;47.70;;;;;;5051800;28;20406;-48
2022/05/17 11:29:28;;;;;;;4.40;4.00;;;30.40;47.40;;;;;;5034751;28;20423;-47
2022/05/17 11:32:16;;;;;;;4.67;4.10;;;31.20;45.40;;;;;;5038915;28;20590;-49
2022/05/17 11:34:44;;;;;;;4.73;4.10;;;32.00;43.10;;;;;;5039338;28;20544;-49
2022/05/17 11:37:32;;;;;;;5.37;4.87;;;32.20;42.00;;;;;;5065678;28;20513;-48
2022/05/17 11:40:22;;;;;;;4.33;4.03;;;32.40;41.60;;;;;;5077486;28;20873;-46
2022/05/17 11:45:57;;;;;;;3.97;3.57;;;32.90;42.10;;;;;;5073787;28;20419;-51
2022/05/17 11:49:09;;;;;;;5.03;4.33;;;33.00;39.90;;;;;;5075801;28;20393;-48
2022/05/17 11:51:56;;;;;;;4.53;4.13;;;32.90;40.30;;;;;;4975028;28;20825;-48
2022/05/17 11:54:45;;;;;;;5.43;4.53;;;33.30;39.10;;;;;;5074068;28;20582;-51
2022/05/17 11:57:11;;;;;;;3.50;3.20;;;32.80;40.60;;;;;;5077714;28;20409;-49
2022/05/17 11:59:55;;;;;;;5.43;3.83;;;32.90;39.40;;;;;;5076782;28;20967;-50
2022/05/17 12:02:43;;;;;;;5.03;4.40;;;32.70;40.70;;;;;;5077794;28;20421;-47
2022/05/17 12:05:37;;;;;;;4.30;3.90;;;32.70;40.90;;;;;;5060035;28;20430;-48
2022/05/17 12:08:24;;;;;;;4.30;3.90;;;32.90;40.90;;;;;;5076296;28;20433;-49
2022/05/17 12:11:08;;;;;;;4.40;4.00;;;32.80;40.70;;;;;;5077050;28;20461;-51
2022/05/17 12:14:08;;;;;;;5.10;3.80;;;32.40;40.70;;;;;;5076347;28;20794;-48
2022/05/17 12:16:37;;;;;;;4.70;4.30;;;31.60;41.20;;;;;;5076149;28;20410;-46
2022/05/17 12:19:53;;;;;;;4.13;3.83;;;30.90;41.90;;;;;;5059577;28;20676;-51
2022/05/17 12:22:49;;;;;;;3.77;3.00;;;30.20;43.20;;;;;;5078196;28;20456;-48
2022/05/17 12:25:21;;;;;;;3.43;2.70;;;29.70;42.30;;;;;;5075215;28;20391;-48
2022/05/17 12:27:47;;;;;;;3.40;2.50;;;29.30;42.00;;;;;;5058852;28;20396;-46
2022/05/17 12:33:27;;;;;;;3.60;3.20;;;28.80;42.70;;;;;;5061855;28;20492;-47
2022/05/17 12:35:55;;;;;;;3.80;3.07;;;28.70;43.00;;;;;;5077607;28;20394;-47
2022/05/17 12:44:23;;;;;;;8.50;3.40;;;28.10;43.20;;;;;;5059846;28;20389;-46
2022/05/17 12:46:51;;;;;;;3.93;3.27;;;28.00;43.50;;;;;;5096345;28;20798;-45
2022/05/17 12:49:20;;;;;;;5.60;3.60;;;27.90;43.00;;;;;;5078096;28;20895;-45
2022/05/17 12:51:50;;;;;;;3.60;3.30;;;28.30;44.20;;;;;;5076695;28;20881;-47
2022/05/17 12:54:21;;;;;;;4.73;3.87;;;29.20;42.30;;;;;;5077167;28;20434;-46
2022/05/17 12:56:47;;;;;;;4.40;3.50;;;29.80;41.60;;;;;;5077870;28;20424;-47
2022/05/17 12:59:27;;;;;;;6.90;4.20;;;30.50;41.60;;;;;;5094922;28;20984;-44
2022/05/17 13:01:56;;;;;;;4.50;3.50;;;31.00;41.40;;;;;;5095830;28;20466;-47
2022/05/17 13:04:29;;;;;;;5.13;4.63;;;31.20;43.00;;;;;;5096324;28;20410;-47
2022/05/17 13:07:13;;;;;;;6.60;4.40;;;30.90;40.30;;;;;;5095519;28;20834;-47
2022/05/17 13:09:53;;;;;;;3.53;3.23;;;30.50;41.10;;;;;;5094720;28;20402;-46
2022/05/17 13:12:19;;;;;;;5.10;4.60;;;30.70;43.10;;;;;;5076692;28;20981;-49
2022/05/17 13:14:52;;;;;;;4.30;3.90;;;31.10;40.90;;;;;;5076977;28;20427;-49
2022/05/17 13:17:33;;;;;;;4.33;4.03;;;30.90;40.00;;;;;;5094360;28;20563;-49
2022/05/17 13:20:05;;;;;;;4.40;3.90;;;30.60;39.90;;;;;;5086755;28;20432;-47
2022/05/17 13:22:31;;;;;;;4.07;3.60;;;30.30;40.60;;;;;;5040680;28;20435;-49
2022/05/17 13:25:03;;;;;;;4.97;3.83;;;30.40;41.70;;;;;;5056884;28;20433;-47
2022/05/17 13:27:42;;;;;;;4.60;4.13;;;31.00;41.20;;;;;;5041411;28;20504;-48
2022/05/17 13:30:31;;;;;;;4.83;4.30;;;31.60;40.10;;;;;;5077053;28;20820;-48
2022/05/17 13:32:58;;;;;;;6.73;4.37;;;32.10;40.10;;;;;;5075269;28;20464;-47
2022/05/17 13:35:44;;;;;;;4.00;3.70;;;32.00;38.60;;;;;;5076031;28;20379;-49